Aérodrome :
LOGIN :

S'inscrire | Disclaimer

   EN    FR    IT 

 










Légende :    VFR   VFR Marginal   IFR   IFR Intensif   IFR Très Intensif
Visi : 
Plafond : 
>= 8 km
>= 3000ft
5 à 8 km
1000 à 3000 ft
1500m à 5 km
500 à 1000 ft
800 à 1500m
200 à 500 ft
< 800m
< 200 ft
Symboles :   Orages  Brouillard  Fortes neiges  Fortes précipitations  Vent > 20 kt
SIGMETs :   Divers  Orages  Givrage  Turbulence  Onde Orograph.  Cendres Volcan.







- Altitude de l'aérodrome : 1830 ft


EBLB - Butgenbach Elsenborn

DERNIER METAR :
  • 221725Z AUTO 21003KT 1700 -SN FEW007/// OVC030/// M05/M07 Q1000 YLO

METARs EXPIRÉS :
  • 221655Z AUTO VRB02KT 2300 -SN OVC023/// M06/M07 Q1000 YLO
  • 221641Z AUTO VRB02KT 1500 -SN OVC023/// M06/M07 Q1001 AMB
  • 221625Z AUTO VRB02KT 2000 -SN OVC026/// M06/M07 Q1001 YLO
  • 221555Z AUTO 19004KT 1700 -SN OVC028/// M06/M07 Q1001 YLO
  • 221525Z AUTO 19003KT 2200 -SN OVC021/// M06/M07 Q1001 YLO
  • 221503Z AUTO 20003KT 1000 -SN FEW007/// OVC019/// M06/M07 Q1001 AMB
  • 221442Z AUTO 20004KT 1300 -SN BKN007/// BKN019/// OVC057/// M06/M08 Q1001 AMB

Prévision TAF périmée.
Pas de NOTAMs connus pour ce terrain.



MET'MAP, la Météo Aéronautique d'un coup d'oeil ! - Copyright ORBIFLY Décembre 2007 - Disclaimer

ORBIFLY MET'MAP TEAM :

Programmation & Développement : Alexandra Zaïnal
Conception & Développement : Baudouin d'Aumeries
Co-Programmation & Développement : Marc-Olivier Méhu
Soutien technique & logistique : Manuel Goepfert

Contact : metmap@orbifly.com




SOURCES & CREDITS :

   NOAA